Aeroporto :
LOGIN :

Iscrizione | Disclaimer

   EN    FR    IT 

 










Sommario :    VFR   VFR Marginale   IFR   IFR Intensivo   IFR Molto Intensivo
Visibilità : 
Base nubi : 
>= 8 km
>= 3000ft
5 / 8 km
1000 / 3000 ft
1500m / 5 km
500 / 1000 ft
800 / 1500m
200 / 500 ft
< 800m
< 200 ft
Simboli :   Temporali  Nebbia  Neve Forte  Precipitazioni Forti  Vento > 20 kt
SIGMETs :   Varie  Temporali  Ghiacco  Turbolenza  Onda orograficha  Ceneri Vulcaniche






- Altitudine del aeroporto : 32 ft
- Codice IATA : LKZ


EGUL - RAF Lakenheath

ULTIMO METAR :
  • 151235Z 05005KT 9999 BKN020 OVC050 09/09 A2964 RMK RAE30 SLPNO $

METARs OBSOLETI :
  • 151156Z 05005KT 9000 -RA BKN030 OVC050 09/09 A2964 RMK AO2A RAB45 SLPNO WND DATA ESTMD ALSTG ESTMD $
  • 151056Z 05005KT 9999 BKN030 OVC100 09/09 A2966 RMK AO2A SLPNO WND DATA ESTMD ALSTG ESTMD $
  • 150956Z 04007KT 9999 SCT025 OVC100 08/08 A2966 RMK AO2A SLPNO WND DATA ESTMD ALSTG ESTMD $

TAF TAF EGUL
Valido dal 15 a 05 ore il 16 a 11 ore UTC


150500Z 1505/1611 03006KT 9999 SCT025 BKN050 QNH2961INS
BECMG 1505/1506 01009KT 9000 -SHRA BKN025 610309 QNH2965INS
BECMG 1508/1509 35012G18KT 9999 NSW BKN030 QNH2961INS
BECMG 1512/1513 01015G25KT 9999 BKN025 QNH2953INS
BECMG 1518/1519 02010G15KT 9000 -SHRA BKN010 OVC020 610309 QNH2954INS
BECMG 1601/1602 05012KT 9999 NSW BKN015 QNH2957INS TX08/1513Z TN04/1506Z



MetMap, La meteo Aeronautica in un colpo d'occhio ! - Copyright ORBIFLY Dicembre 2007 - Disclaimer

ORBIFLY MET'MAP TEAM :

Programmazione e sviluppo : Alexandra Zaïnal
Concezione e sviluppo : Baudouin d'Aumeries
Co-Programmazione e sviluppo : Marc-Olivier Méhu
Supporto tecnico e logistico : Manuel Goepfert
Aiuto per la traduzione : Arnaldo La Scala

Contatto : metmap@orbifly.com




FONTI E CREDITI :

   NOAA